createdAt,value
2022-12-14T00:04:34.818Z,-0.65
2022-12-14T00:09:37.471Z,-0.54
2022-12-14T00:14:40.072Z,0.28
2022-12-14T00:19:42.764Z,0.45
2022-12-14T00:24:45.352Z,0.49
2022-12-14T00:29:47.763Z,0.72
2022-12-14T00:34:50.164Z,1.02
2022-12-14T00:39:52.665Z,0.97
2022-12-14T00:44:55.265Z,0.04
2022-12-14T00:49:57.797Z,-0.45
2022-12-14T00:55:00.465Z,-0.08
2022-12-14T01:00:03.124Z,0.37
2022-12-14T01:05:05.952Z,-0.06
2022-12-14T01:10:08.926Z,-0.82
2022-12-14T01:15:11.908Z,-0.93
2022-12-14T01:20:14.651Z,-1.01
2022-12-14T01:25:17.103Z,-0.53
2022-12-14T01:30:19.659Z,-1.12
2022-12-14T01:35:22.148Z,-0.97
2022-12-14T01:40:24.556Z,-0.92
2022-12-14T01:45:27.239Z,-0.36
2022-12-14T01:50:41.660Z,-0.50
2022-12-14T01:55:50.090Z,-0.30
2022-12-14T02:00:58.570Z,-0.10
2022-12-14T02:06:03.682Z,0.04
2022-12-14T02:11:06.227Z,-0.51
2022-12-14T02:16:10.620Z,-0.76
2022-12-14T02:21:35.297Z,-0.92
2022-12-14T02:26:56.483Z,-0.74
2022-12-14T02:32:26.719Z,-0.63
2022-12-14T02:37:44.666Z,-0.53
2022-12-14T02:43:18.963Z,-0.46
2022-12-14T02:48:31.668Z,-0.31
2022-12-14T02:53:53.495Z,-0.12
2022-12-14T02:58:56.778Z,0.08
2022-12-14T03:04:00.253Z,-0.15
2022-12-14T03:09:17.830Z,-0.27
2022-12-14T03:14:36.072Z,-0.59
2022-12-14T03:19:44.383Z,-0.33
2022-12-14T03:25:01.144Z,-0.61
2022-12-14T03:30:13.970Z,-0.43
2022-12-14T03:35:18.816Z,-0.02
2022-12-14T03:40:43.212Z,0.18
2022-12-14T03:45:58.096Z,0.40
2022-12-14T03:51:13.174Z,0.21
2022-12-14T03:56:39.120Z,0.00
2022-12-14T04:01:46.980Z,-0.59
2022-12-14T04:07:10.172Z,-0.51
2022-12-14T04:12:51.902Z,-0.54
2022-12-14T04:18:17.806Z,-0.51
2022-12-14T04:23:44.303Z,-0.32
2022-12-14T04:29:21.075Z,-0.68
2022-12-14T04:34:26.272Z,-0.51
2022-12-14T04:39:38.537Z,-0.62
2022-12-14T04:44:52.229Z,-0.46
2022-12-14T04:50:15.183Z,-0.44
2022-12-14T04:55:42.271Z,-0.12
2022-12-14T05:01:28.970Z,0.42
2022-12-14T05:06:41.427Z,0.25
2022-12-14T05:11:54.275Z,-0.31
2022-12-14T05:16:58.132Z,-0.05
2022-12-14T05:22:08.091Z,0.15
2022-12-14T05:27:10.680Z,0.18
2022-12-14T05:32:14.166Z,0.33
2022-12-14T05:37:18.611Z,0.69
2022-12-14T05:42:21.584Z,0.58
2022-12-14T05:47:24.662Z,0.80
2022-12-14T05:52:28.012Z,0.62
2022-12-14T05:57:31.999Z,0.19
2022-12-14T06:02:34.494Z,0.12
2022-12-14T06:07:36.950Z,-0.10
2022-12-14T06:12:39.383Z,-0.19
2022-12-14T06:17:48.263Z,0.38
2022-12-14T06:22:50.629Z,0.30
2022-12-14T06:27:55.922Z,0.22
2022-12-14T06:32:58.279Z,0.14
2022-12-14T06:38:00.642Z,0.12
2022-12-14T06:43:03.548Z,0.53
2022-12-14T06:48:06.639Z,0.23
2022-12-14T06:53:13.486Z,0.20
2022-12-14T06:58:16.216Z,0.61
2022-12-14T07:03:18.668Z,0.43
2022-12-14T07:08:21.122Z,0.33
2022-12-14T07:13:23.660Z,0.56
2022-12-14T07:18:26.871Z,0.56
2022-12-14T07:23:32.213Z,0.06
2022-12-14T07:28:37.082Z,0.20
2022-12-14T07:33:39.517Z,0.51
2022-12-14T07:38:43.794Z,0.34
2022-12-14T07:43:49.958Z,0.55
2022-12-14T07:48:54.775Z,0.44
2022-12-14T07:53:58.421Z,0.43
2022-12-14T07:59:03.617Z,0.36
2022-12-14T08:04:08.816Z,0.53
2022-12-14T08:09:12.269Z,0.67
2022-12-14T08:14:17.572Z,0.48
2022-12-14T08:19:20.495Z,0.64
2022-12-14T08:24:22.890Z,0.85
2022-12-14T08:29:25.372Z,0.95
2022-12-14T08:34:27.927Z,1.23
2022-12-14T08:39:30.360Z,1.45
2022-12-14T08:44:32.991Z,1.22
2022-12-14T08:49:35.698Z,1.29
2022-12-14T08:54:38.094Z,1.26
2022-12-14T09:00:00.833Z,1.73
2022-12-14T09:05:03.669Z,1.99
2022-12-14T09:10:08.163Z,1.59
2022-12-14T09:15:11.905Z,1.36
2022-12-14T09:20:14.799Z,1.15
2022-12-14T09:25:17.403Z,1.52
2022-12-14T09:30:26.205Z,1.99
2022-12-14T09:35:29.115Z,2.32
2022-12-14T09:40:33.281Z,1.58
2022-12-14T09:45:47.719Z,1.26
2022-12-14T09:50:52.676Z,0.95
2022-12-14T09:55:57.303Z,1.35
2022-12-14T10:01:20.847Z,1.59
2022-12-14T10:06:45.654Z,1.87
2022-12-14T10:12:09.536Z,1.92
2022-12-14T10:17:21.927Z,1.69
2022-12-14T10:22:34.275Z,1.58
2022-12-14T10:28:09.171Z,1.70
2022-12-14T10:33:13.856Z,1.81
2022-12-14T10:38:29.798Z,2.23
2022-12-14T10:43:56.387Z,2.45
2022-12-14T10:49:24.605Z,2.66
2022-12-14T10:54:38.665Z,2.83
2022-12-14T10:59:55.597Z,3.04
2022-12-14T11:05:23.638Z,3.26
2022-12-14T11:10:32.605Z,3.45
2022-12-14T11:15:40.258Z,3.45
2022-12-14T11:20:52.924Z,3.46
2022-12-14T11:26:00.916Z,2.91
2022-12-14T11:31:14.490Z,2.86
2022-12-14T11:36:28.823Z,3.16
2022-12-14T11:41:36.965Z,3.53
2022-12-14T11:46:51.538Z,2.96
2022-12-14T11:52:05.744Z,3.04
2022-12-14T11:57:22.727Z,3.68
2022-12-14T12:02:48.141Z,3.97
2022-12-14T12:07:50.626Z,4.00
2022-12-14T12:12:59.842Z,4.27
2022-12-14T12:18:22.195Z,4.50
2022-12-14T12:23:45.225Z,4.57
2022-12-14T12:28:54.532Z,4.59
2022-12-14T12:34:10.245Z,4.47
2022-12-14T12:39:17.052Z,4.25
2022-12-14T12:44:59.816Z,4.45
2022-12-14T12:50:07.115Z,4.57
2022-12-14T12:55:16.879Z,4.62
2022-12-14T13:00:22.233Z,4.54
2022-12-14T13:16:26.536Z,4.33
2022-12-14T13:21:34.743Z,4.50
2022-12-14T13:27:13.799Z,4.60
2022-12-14T13:33:05.139Z,4.35
2022-12-14T13:38:16.326Z,4.36
2022-12-14T13:43:24.860Z,3.75
2022-12-14T13:48:35.104Z,3.96
2022-12-14T13:53:50.428Z,4.25
2022-12-14T13:58:55.222Z,4.13
2022-12-14T14:04:18.605Z,4.08
2022-12-14T14:09:28.375Z,4.41
2022-12-14T14:14:37.047Z,4.43
2022-12-14T14:19:42.632Z,4.30
2022-12-14T14:24:55.033Z,4.21
2022-12-14T14:29:58.318Z,4.24
2022-12-14T14:35:06.902Z,4.28
2022-12-14T14:40:26.189Z,4.23
2022-12-14T14:45:34.562Z,4.13
2022-12-14T14:50:39.895Z,4.01
2022-12-14T14:56:01.949Z,3.93
2022-12-14T15:01:20.888Z,4.09
2022-12-14T15:06:41.429Z,3.90
2022-12-14T15:11:56.630Z,3.99
2022-12-14T15:17:11.076Z,3.96
2022-12-14T15:22:19.925Z,4.06
2022-12-14T15:27:27.435Z,3.99
2022-12-14T15:32:31.883Z,3.87
2022-12-14T15:37:46.861Z,3.92
2022-12-14T15:42:58.533Z,3.73
2022-12-14T15:48:23.584Z,3.87
2022-12-14T15:53:52.124Z,3.86
2022-12-14T15:58:56.490Z,3.77
2022-12-14T16:04:05.694Z,3.78
2022-12-14T16:09:14.405Z,3.72
2022-12-14T16:14:32.660Z,4.01
2022-12-14T16:19:57.488Z,4.13
2022-12-14T16:25:21.770Z,4.13
2022-12-14T16:30:34.129Z,4.08
2022-12-14T16:35:38.123Z,3.99
2022-12-14T16:40:53.888Z,3.77
2022-12-14T16:46:05.279Z,3.84
2022-12-14T16:51:32.635Z,3.79
2022-12-14T16:56:45.579Z,3.96
2022-12-14T17:01:50.180Z,3.95
2022-12-14T17:06:55.659Z,3.85
2022-12-14T17:12:11.155Z,3.76
2022-12-14T17:17:35.047Z,3.96
2022-12-14T17:22:37.589Z,3.82
2022-12-14T17:27:41.039Z,3.81
2022-12-14T17:32:44.875Z,3.91
2022-12-14T17:37:48.349Z,3.89
2022-12-14T17:42:54.773Z,3.54
2022-12-14T17:47:57.839Z,3.61
2022-12-14T17:53:00.354Z,3.65
2022-12-14T17:58:03.091Z,3.66
2022-12-14T18:03:06.251Z,3.52
2022-12-14T18:08:10.036Z,3.59
2022-12-14T18:13:13.915Z,3.53
2022-12-14T18:18:20.456Z,3.77
2022-12-14T18:23:22.937Z,3.70
2022-12-14T18:28:25.860Z,3.72
2022-12-14T18:33:29.190Z,3.78
2022-12-14T18:38:32.068Z,3.73
2022-12-14T18:43:40.165Z,3.54
2022-12-14T18:48:46.762Z,3.59
2022-12-14T18:53:49.757Z,3.58
2022-12-14T18:58:52.640Z,3.46
2022-12-14T19:03:55.268Z,3.80
2022-12-14T19:08:57.768Z,3.65
2022-12-14T19:14:01.054Z,3.78
2022-12-14T19:19:03.706Z,3.85
2022-12-14T19:24:08.684Z,3.93
2022-12-14T19:29:11.168Z,3.64
2022-12-14T19:34:14.065Z,3.34
2022-12-14T19:39:17.027Z,3.40
2022-12-14T19:44:19.507Z,3.34
2022-12-14T19:49:22.454Z,3.64
2022-12-14T19:54:24.893Z,3.15
2022-12-14T19:59:27.536Z,3.38
2022-12-14T20:04:30.125Z,3.75
2022-12-14T20:09:32.759Z,3.88
2022-12-14T20:14:39.818Z,3.82
2022-12-14T20:19:42.329Z,3.75
2022-12-14T20:24:47.359Z,3.43
2022-12-14T20:29:49.952Z,3.38
2022-12-14T20:34:52.448Z,3.39
2022-12-14T20:39:54.951Z,3.49
2022-12-14T20:45:00.332Z,3.50
2022-12-14T20:50:05.384Z,3.35
2022-12-14T20:55:08.266Z,3.56
2022-12-14T21:00:11.422Z,3.71
2022-12-14T21:05:14.082Z,3.67
2022-12-14T21:10:16.947Z,3.41
2022-12-14T21:15:19.460Z,3.38
2022-12-14T21:20:22.483Z,3.43
2022-12-14T21:25:24.922Z,3.29
2022-12-14T21:30:27.332Z,3.25
2022-12-14T21:35:29.742Z,3.33
2022-12-14T21:40:50.976Z,3.30
2022-12-14T21:45:53.444Z,3.34
2022-12-14T21:50:56.051Z,3.49
2022-12-14T21:56:21.502Z,3.71
2022-12-14T22:01:23.973Z,3.56
2022-12-14T22:06:26.559Z,3.37
2022-12-14T22:11:29.638Z,3.34
2022-12-14T22:16:34.098Z,3.24
2022-12-14T22:21:39.266Z,3.25
2022-12-14T22:26:42.673Z,3.31
2022-12-14T22:31:45.440Z,3.31
2022-12-14T22:36:49.602Z,3.33
2022-12-14T22:41:52.007Z,3.27
2022-12-14T22:46:54.658Z,3.29
2022-12-14T22:51:57.066Z,3.36
2022-12-14T22:57:04.225Z,3.46
2022-12-14T23:02:06.883Z,2.33
2022-12-14T23:07:09.655Z,1.73
2022-12-14T23:12:30.922Z,1.88
2022-12-14T23:17:52.089Z,1.87
2022-12-14T23:23:13.378Z,1.63
2022-12-14T23:28:34.574Z,2.14
2022-12-14T23:33:55.914Z,2.75
2022-12-14T23:39:17.057Z,2.94
2022-12-14T23:44:38.103Z,2.40
2022-12-14T23:49:59.286Z,1.80
2022-12-14T23:55:20.364Z,1.56
